Time;durP1;ratioP1;P1;durP2;ratioP2;P2;SDS_P1;SDS_P2;PMS_P1;PMS_P2;Temp;Humidity;BMP_temperature;BMP_pressure;BME280_temperature;BME280_humidity;BME280_pressure;Samples;Min_cycle;Max_cycle;Signal;HPM_P1;HPM_P2
2021/08/27 00:04:06;;;;;;;7.45;2.70;;;;;;;14.48;75.76;100269.59;20660141;28;20050;-73
2021/08/27 00:14:08;;;;;;;5.93;2.25;;;;;;;14.56;75.98;100270.19;20659810;28;20043;-72
2021/08/27 00:24:10;;;;;;;6.82;2.50;;;;;;;14.50;76.39;100266.91;20659764;28;20057;-73
2021/08/27 00:34:12;;;;;;;10.40;2.63;;;;;;;14.50;75.43;100265.13;20659410;28;20073;-73
2021/08/27 00:44:14;;;;;;;6.95;2.22;;;;;;;14.42;76.20;100267.13;20658289;28;20492;-73
2021/08/27 00:54:16;;;;;;;7.63;2.70;;;;;;;14.39;76.66;100267.22;20656899;28;20101;-72
2021/08/27 01:04:18;;;;;;;10.77;2.67;;;;;;;14.49;76.27;100278.34;20657079;28;20043;-73
2021/08/27 01:14:26;;;;;;;7.07;2.83;;;;;;;14.44;77.27;100273.22;20657185;28;20054;-72
2021/08/27 01:24:29;;;;;;;7.55;2.90;;;;;;;14.33;78.72;100293.78;20656698;28;20057;-72
2021/08/27 01:34:43;;;;;;;8.48;2.83;;;;;;;14.47;76.96;100298.56;20647203;28;20050;-72
2021/08/27 01:44:46;;;;;;;6.30;2.85;;;;;;;14.35;79.36;100307.75;20655825;28;20046;-71
2021/08/27 01:54:48;;;;;;;10.30;3.70;;;;;;;14.02;84.20;100297.38;20657748;28;20046;-71
2021/08/27 02:04:53;;;;;;;10.00;4.20;;;;;;;13.99;87.60;100309.78;20670471;28;20045;-71
2021/08/27 02:14:56;;;;;;;8.07;4.15;;;;;;;14.04;87.40;100307.88;20669766;28;20101;-72
2021/08/27 02:25:07;;;;;;;7.93;4.60;;;;;;;14.02;87.37;100300.00;20668226;28;20054;-71
2021/08/27 02:35:10;;;;;;;9.10;5.28;;;;;;;13.85;88.59;100312.84;20666787;28;20047;-70
2021/08/27 02:45:12;;;;;;;13.75;5.05;;;;;;;13.73;90.08;100329.00;20667022;28;20046;-70
2021/08/27 02:55:22;;;;;;;10.30;5.03;;;;;;;13.78;89.14;100327.09;20666197;28;20046;-71
2021/08/27 03:05:26;;;;;;;9.68;4.10;;;;;;;13.83;88.14;100327.81;20664560;28;20170;-71
2021/08/27 03:15:31;;;;;;;9.15;4.43;;;;;;;13.67;88.44;100314.25;20663812;28;20054;-70
2021/08/27 03:25:37;;;;;;;10.82;4.65;;;;;;;13.65;90.03;100304.69;20663038;28;20459;-71
2021/08/27 03:35:39;;;;;;;9.27;4.55;;;;;;;13.47;89.53;100309.59;20662306;28;20046;-71
2021/08/27 03:45:44;;;;;;;10.00;4.68;;;;;;;13.25;90.19;100316.38;20662110;28;20109;-72
2021/08/27 03:55:49;;;;;;;9.25;5.07;;;;;;;13.13;90.63;100311.41;20659506;28;20488;-71
2021/08/27 04:06:10;;;;;;;9.57;5.07;;;;;;;12.95;90.39;100324.16;20660200;28;20038;-70
2021/08/27 04:16:12;;;;;;;7.18;4.00;;;;;;;12.84;90.60;100331.47;20659519;28;20050;-71
2021/08/27 04:26:16;;;;;;;9.98;4.47;;;;;;;12.81;90.78;100337.66;20658538;28;20125;-70
2021/08/27 04:36:18;;;;;;;11.15;5.72;;;;;;;12.73;91.11;100344.00;20657832;28;20081;-71
2021/08/27 04:46:20;;;;;;;10.50;4.90;;;;;;;12.58;91.07;100355.75;20657963;28;20082;-70
2021/08/27 04:56:22;;;;;;;13.25;4.97;;;;;;;12.57;92.11;100375.91;20657911;28;20081;-71
2021/08/27 05:06:24;;;;;;;11.40;5.72;;;;;;;12.53;91.09;100379.50;20656707;28;20109;-71
2021/08/27 05:16:26;;;;;;;12.75;6.30;;;;;;;12.51;91.60;100373.44;20657146;28;20086;-71
2021/08/27 05:26:28;;;;;;;11.43;5.95;;;;;;;12.46;90.88;100393.69;20656717;28;20534;-71
2021/08/27 05:36:30;;;;;;;13.30;6.35;;;;;;;12.64;90.33;100391.50;20667571;28;20046;-71
2021/08/27 05:46:31;;;;;;;10.23;5.95;;;;;;;12.78;89.99;100405.16;20671373;28;20054;-72
2021/08/27 05:56:33;;;;;;;9.15;6.35;;;;;;;12.96;90.32;100419.63;20671008;28;20054;-71
2021/08/27 06:06:35;;;;;;;15.32;7.90;;;;;;;13.21;89.34;100431.22;20669608;28;20046;-71
2021/08/27 06:16:37;;;;;;;11.23;6.78;;;;;;;13.35;89.66;100441.41;20669138;28;20047;-71
2021/08/27 06:26:41;;;;;;;11.98;8.02;;;;;;;13.49;88.78;100436.66;20670791;28;20849;-72
2021/08/27 06:36:43;;;;;;;13.20;6.72;;;;;;;13.57;86.50;100439.94;20667076;28;20424;-72
2021/08/27 06:46:44;;;;;;;17.85;7.40;;;;;;;13.76;86.32;100440.31;20664178;28;20096;-72
2021/08/27 06:56:46;;;;;;;13.10;7.72;;;;;;;14.02;84.99;100446.59;20666034;28;20054;-73
2021/08/27 07:06:48;;;;;;;14.45;6.57;;;;;;;14.06;84.69;100459.63;20645396;28;20538;-73
2021/08/27 07:16:49;;;;;;;9.30;3.53;;;;;;;14.22;77.56;100464.41;20641257;28;20054;-73
2021/08/27 07:26:51;;;;;;;8.88;4.07;;;;;;;14.45;77.17;100469.00;20598021;28;20050;-73
2021/08/27 07:36:52;;;;;;;9.43;4.07;;;;;;;14.50;76.08;100478.53;20592777;28;20050;-73
2021/08/27 07:46:54;;;;;;;7.43;3.55;;;;;;;14.59;75.02;100480.03;20663569;28;20050;-74
2021/08/27 07:56:56;;;;;;;6.10;3.38;;;;;;;15.28;75.40;100468.13;20661894;28;20043;-73
2021/08/27 08:06:58;;;;;;;6.95;3.08;;;;;;;15.41;70.68;100468.53;20661048;28;20043;-73
2021/08/27 08:17:00;;;;;;;7.35;2.65;;;;;;;15.50;67.84;100470.84;20602704;28;20477;-73
2021/08/27 08:27:01;;;;;;;9.63;2.55;;;;;;;15.97;67.44;100476.25;20579906;28;20047;-73
2021/08/27 08:37:03;;;;;;;7.03;2.80;;;;;;;15.94;67.22;100468.44;20578029;28;20500;-74
2021/08/27 08:47:07;;;;;;;7.57;2.33;;;;;;;16.74;62.50;100468.06;20579117;28;20073;-73
2021/08/27 08:57:09;;;;;;;5.03;1.85;;;;;;;16.62;60.80;100464.06;20577972;28;20532;-73
2021/08/27 09:07:11;;;;;;;6.68;2.20;;;;;;;16.50;65.65;100481.28;20576713;28;20105;-73
2021/08/27 09:17:13;;;;;;;6.65;2.20;;;;;;;16.39;66.58;100480.84;20637016;28;20054;-73
2021/08/27 09:27:15;;;;;;;6.18;2.60;;;;;;;16.52;65.53;100490.00;20657659;28;20046;-73
2021/08/27 09:37:16;;;;;;;6.03;2.17;;;;;;;16.99;63.08;100489.94;20656639;28;20047;-73
2021/08/27 09:47:18;;;;;;;6.55;2.20;;;;;;;17.22;60.95;100488.13;20657474;28;20082;-73
2021/08/27 09:57:26;;;;;;;5.95;2.05;;;;;;;17.63;55.97;100474.00;20657503;28;20051;-73
2021/08/27 10:07:40;;;;;;;4.05;1.70;;;;;;;17.39;57.97;100482.97;20655821;28;20061;-73
2021/08/27 10:17:42;;;;;;;5.10;2.15;;;;;;;17.49;58.56;100479.03;20596696;28;20121;-73
2021/08/27 10:27:48;;;;;;;6.47;2.30;;;;;;;17.09;58.08;100474.53;20589405;28;20110;-73
2021/08/27 10:37:50;;;;;;;6.25;2.67;;;;;;;16.78;60.94;100485.53;20617889;28;20125;-73
2021/08/27 10:48:08;;;;;;;6.78;2.78;;;;;;;16.48;63.46;100483.16;20666620;28;20054;-73
2021/08/27 10:58:15;;;;;;;8.82;3.03;;;;;;;16.62;65.16;100478.19;20666876;28;20439;-73
2021/08/27 11:08:31;;;;;;;7.55;2.92;;;;;;;16.70;66.20;100477.84;20665389;28;20077;-73
2021/08/27 11:18:34;;;;;;;9.73;3.10;;;;;;;17.26;62.04;100468.56;20594566;28;20477;-73
2021/08/27 11:28:36;;;;;;;6.03;3.15;;;;;;;17.83;58.79;100467.84;20580550;28;20055;-72
2021/08/27 11:38:39;;;;;;;6.28;2.97;;;;;;;17.77;58.89;100473.41;20581159;28;20047;-72
2021/08/27 11:48:48;;;;;;;8.15;3.30;;;;;;;17.83;56.19;100467.84;20581426;28;20101;-72
2021/08/27 11:58:50;;;;;;;5.70;3.20;;;;;;;18.05;59.66;100477.47;20581225;28;20097;-72
2021/08/27 12:08:51;;;;;;;8.27;3.33;;;;;;;17.87;60.73;100471.22;20579561;28;20051;-72
2021/08/27 12:18:54;;;;;;;7.15;3.17;;;;;;;18.38;57.04;100461.81;20647726;28;20058;-72
2021/08/27 12:28:56;;;;;;;8.25;3.13;;;;;;;18.49;58.08;100463.94;20640540;28;20047;-73
2021/08/27 12:38:58;;;;;;;10.40;3.20;;;;;;;19.16;53.92;100452.72;20657495;28;20039;-73
2021/08/27 12:49:19;;;;;;;7.82;3.25;;;;;;;19.29;52.47;100447.66;20656097;28;20042;-73
2021/08/27 12:59:21;;;;;;;6.95;2.80;;;;;;;20.02;52.59;100438.50;20657388;28;20537;-73
2021/08/27 13:09:31;;;;;;;5.15;2.70;;;;;;;19.72;51.03;100443.66;20656668;28;20039;-73
2021/08/27 13:19:44;;;;;;;6.95;2.90;;;;;;;19.70;50.26;100435.78;20578395;28;20054;-73
2021/08/27 13:29:46;;;;;;;5.70;2.72;;;;;;;19.49;51.89;100421.78;20576511;28;20109;-74
2021/08/27 13:39:48;;;;;;;4.95;2.60;;;;;;;19.15;52.64;100420.03;20638448;28;20398;-74
2021/08/27 13:49:51;;;;;;;4.72;2.72;;;;;;;19.31;52.72;100409.50;20640641;28;20104;-74
2021/08/27 13:59:52;;;;;;;7.05;3.45;;;;;;;20.10;50.18;100384.94;20672636;28;20101;-74
2021/08/27 14:09:54;;;;;;;8.75;3.03;;;;;;;19.86;50.41;100373.84;20669432;28;20511;-73
2021/08/27 14:19:56;;;;;;;6.97;2.67;;;;;;;20.48;49.08;100367.69;20590160;28;20051;-72
2021/08/27 14:41:19;;;;;;;6.53;2.90;;;;;;;19.65;52.18;100365.25;20665180;28;20038;-81
2021/08/27 14:51:21;;;;;;;6.78;2.53;;;;;;;20.06;51.84;100365.63;20716845;23;20508;-84
2021/08/27 15:01:23;;;;;;;5.25;2.67;;;;;;;20.53;50.66;100363.94;20620211;28;20110;-83
2021/08/27 15:11:25;;;;;;;8.50;4.47;;;;;;;20.21;51.94;100370.09;20645691;28;20389;-83
2021/08/27 15:21:27;;;;;;;4.60;2.33;;;;;;;19.90;52.20;100375.41;20706666;28;20188;-83
2021/08/27 15:31:28;;;;;;;7.32;2.63;;;;;;;19.74;53.17;100375.38;20680984;28;20046;-83
2021/08/27 15:41:31;;;;;;;4.97;2.55;;;;;;;19.76;54.24;100383.25;20664273;28;20716;-84
2021/08/27 15:51:32;;;;;;;41.92;15.15;;;;;;;19.42;54.27;100380.56;20661659;28;20096;-82
2021/08/27 16:01:35;;;;;;;5.38;3.20;;;;;;;19.16;59.21;100379.28;20678189;28;20046;-83
2021/08/27 16:11:39;;;;;;;5.88;2.30;;;;;;;18.62;58.49;100407.59;20672350;28;20042;-82
2021/08/27 16:21:42;;;;;;;6.53;3.03;;;;;;;18.16;59.79;100401.88;20668081;28;20081;-82
2021/08/27 16:32:02;;;;;;;5.70;2.50;;;;;;;17.98;61.28;100405.38;20685276;28;20114;-84
2021/08/27 16:42:05;;;;;;;7.10;2.90;;;;;;;17.86;61.40;100419.16;20686991;28;20054;-83
2021/08/27 16:52:07;;;;;;;6.15;2.83;;;;;;;17.66;64.39;100423.53;20690606;28;20180;-84
2021/08/27 17:02:08;;;;;;;5.13;2.67;;;;;;;17.31;67.73;100426.88;20687774;28;20109;-84
2021/08/27 17:12:15;;;;;;;6.30;3.25;;;;;;;16.99;72.76;100425.59;20681625;28;20145;-83
2021/08/27 17:22:17;;;;;;;5.28;2.60;;;;;;;16.70;74.32;100439.97;20675753;28;21377;-83
2021/08/27 17:32:19;;;;;;;6.90;3.08;;;;;;;16.41;77.50;100444.66;20688810;28;20050;-83
2021/08/27 17:42:20;;;;;;;5.72;2.95;;;;;;;16.36;78.52;100446.59;20699126;28;20100;-83
2021/08/27 17:52:23;;;;;;;7.60;3.63;;;;;;;16.47;79.18;100440.91;20705940;28;20034;-83
2021/08/27 18:02:25;;;;;;;5.00;3.10;;;;;;;16.48;77.38;100440.84;20772279;28;20046;-84
2021/08/27 18:12:27;;;;;;;6.50;2.78;;;;;;;16.36;76.45;100446.59;20667189;28;20072;-83
2021/08/27 18:22:29;;;;;;;4.47;2.05;;;;;;;16.21;76.87;100460.41;20697820;28;20050;-83
2021/08/27 18:32:31;;;;;;;5.35;2.13;;;;;;;16.01;78.58;100472.59;20698876;28;20046;-82
2021/08/27 18:42:33;;;;;;;4.47;1.92;;;;;;;15.99;78.96;100479.69;20684788;28;20077;-83
2021/08/27 18:52:35;;;;;;;6.13;1.98;;;;;;;15.84;79.85;100486.38;20694651;28;20104;-83
2021/08/27 19:02:38;;;;;;;5.97;1.83;;;;;;;15.95;79.71;100483.34;20656450;28;20050;-83
2021/08/27 19:12:40;;;;;;;6.70;2.97;;;;;;;15.96;79.75;100495.66;20615711;28;20493;-83
2021/08/27 19:22:42;;;;;;;5.45;2.10;;;;;;;15.93;78.56;100501.03;20611369;28;20193;-84
2021/08/27 19:32:44;;;;;;;3.90;1.83;;;;;;;15.86;78.83;100507.47;20612372;28;20081;-83
2021/08/27 19:42:46;;;;;;;5.05;1.90;;;;;;;15.82;78.69;100498.78;20610534;28;20124;-83
2021/08/27 19:52:49;;;;;;;4.15;1.75;;;;;;;15.65;79.41;100501.16;20580128;28;20101;-82
2021/08/27 20:02:51;;;;;;;7.32;1.95;;;;;;;15.61;78.33;100505.63;20608131;28;20046;-82
2021/08/27 20:12:52;;;;;;;6.15;2.10;;;;;;;15.70;78.87;100501.00;20660770;28;20085;-84
2021/08/27 20:22:54;;;;;;;7.68;2.00;;;;;;;15.56;78.40;100507.56;20716778;28;20104;-83
2021/08/27 20:32:56;;;;;;;4.88;1.63;;;;;;;15.44;79.29;100513.28;20655947;28;20141;-83
2021/08/27 20:42:58;;;;;;;3.17;1.38;;;;;;;15.38;78.71;100508.22;20609508;28;20058;-83
2021/08/27 20:53:00;;;;;;;4.68;1.40;;;;;;;15.14;79.03;100502.00;20610070;28;20047;-83
2021/08/27 21:03:02;;;;;;;3.70;1.45;;;;;;;15.19;78.68;100507.09;20574432;28;20055;-81
2021/08/27 21:13:03;;;;;;;4.28;1.40;;;;;;;15.21;78.86;100510.56;20599761;28;20054;-81
2021/08/27 21:23:05;;;;;;;3.08;1.27;;;;;;;15.28;78.26;100512.06;20652419;28;20104;-83
2021/08/27 21:33:07;;;;;;;3.85;1.30;;;;;;;15.30;77.16;100507.63;20650863;28;20046;-84
2021/08/27 21:43:09;;;;;;;4.85;1.40;;;;;;;15.28;78.00;100510.31;20675690;28;20046;-82
2021/08/27 21:53:11;;;;;;;3.47;1.40;;;;;;;15.14;79.70;100500.22;20665540;28;20117;-83
2021/08/27 22:03:13;;;;;;;4.38;1.50;;;;;;;15.21;78.31;100510.56;20652155;28;20109;-83
2021/08/27 22:13:19;;;;;;;5.93;1.73;;;;;;;15.15;79.24;100503.72;20674197;28;20093;-83
2021/08/27 22:23:21;;;;;;;3.97;1.60;;;;;;;15.02;79.47;100516.44;20684689;28;20117;-83
2021/08/27 22:33:24;;;;;;;7.20;1.58;;;;;;;14.96;80.02;100521.91;20692261;28;20054;-84
2021/08/27 22:43:26;;;;;;;5.18;1.40;;;;;;;14.82;79.99;100511.78;20696898;28;20046;-84
2021/08/27 22:53:28;;;;;;;3.05;1.02;;;;;;;14.77;79.35;100507.59;20732259;28;20042;-82
2021/08/27 23:03:30;;;;;;;7.22;2.22;;;;;;;14.62;79.79;100512.41;20696619;28;20039;-83
2021/08/27 23:13:34;;;;;;;4.85;1.50;;;;;;;14.62;79.47;100516.81;20680421;28;20050;-83
2021/08/27 23:23:38;;;;;;;6.97;2.10;;;;;;;14.59;79.20;100512.50;20676765;28;20047;-83
2021/08/27 23:33:39;;;;;;;4.80;1.33;;;;;;;14.61;79.10;100515.06;20658959;28;20046;-84
2021/08/27 23:43:41;;;;;;;3.55;1.80;;;;;;;14.61;79.16;100515.06;20680691;28;20050;-83
2021/08/27 23:53:44;;;;;;;5.43;1.63;;;;;;;14.62;79.10;100511.56;20680809;28;20468;-84
